createdAt,value
2022-11-05T00:00:17.536Z,85.59
2022-11-05T00:03:02.795Z,85.74
2022-11-05T00:05:48.535Z,85.96
2022-11-05T00:08:33.867Z,86.46
2022-11-05T00:11:00.918Z,86.95
2022-11-05T00:13:46.796Z,86.98
2022-11-05T00:16:32.459Z,87.38
2022-11-05T00:19:09.168Z,87.26
2022-11-05T00:21:58.138Z,87.54
2022-11-05T00:24:43.748Z,88.18
2022-11-05T00:27:11.253Z,88.67
2022-11-05T00:29:38.120Z,88.96
2022-11-05T00:32:05.124Z,89.63
2022-11-05T00:34:32.336Z,89.56
2022-11-05T00:36:59.121Z,89.28
2022-11-05T00:39:25.941Z,89.53
2022-11-05T00:42:11.430Z,89.33
2022-11-05T00:44:56.662Z,90.10
2022-11-05T00:47:41.805Z,89.56
2022-11-05T00:50:10.907Z,89.58
2022-11-05T00:52:57.076Z,89.76
2022-11-05T00:55:34.875Z,89.90
2022-11-05T00:58:03.840Z,89.94
2022-11-05T01:00:33.064Z,90.08
2022-11-05T01:03:00.866Z,89.97
2022-11-05T01:05:28.793Z,90.17
2022-11-05T01:07:56.069Z,90.54
2022-11-05T01:10:24.673Z,90.11
2022-11-05T01:12:51.738Z,89.84
2022-11-05T01:15:19.925Z,89.78
2022-11-05T01:17:47.109Z,89.80
2022-11-05T01:20:14.158Z,89.48
2022-11-05T01:22:41.031Z,91.04
2022-11-05T01:25:08.906Z,89.39
2022-11-05T01:27:37.380Z,89.72
2022-11-05T01:30:06.961Z,89.04
2022-11-05T01:32:35.522Z,88.91
2022-11-05T01:35:04.070Z,89.20
2022-11-05T01:37:30.967Z,89.69
2022-11-05T01:39:58.010Z,89.36
2022-11-05T01:42:26.449Z,89.61
2022-11-05T01:44:55.719Z,90.28
2022-11-05T01:47:34.352Z,90.87
2022-11-05T01:50:14.086Z,91.51
2022-11-05T01:52:40.941Z,90.32
2022-11-05T01:55:10.437Z,90.59
2022-11-05T01:57:37.479Z,91.63
2022-11-05T02:00:04.866Z,91.13
2022-11-05T02:02:40.123Z,91.37
2022-11-05T02:05:11.187Z,91.82
2022-11-05T02:07:38.368Z,93.11
2022-11-05T02:10:10.203Z,92.15
2022-11-05T02:12:39.594Z,92.50
2022-11-05T02:15:06.667Z,92.73
2022-11-05T02:18:10.920Z,92.87
2022-11-05T02:20:59.683Z,93.07
2022-11-05T02:24:18.414Z,93.35
2022-11-05T02:27:03.496Z,93.59
2022-11-05T02:30:03.499Z,94.47
2022-11-05T02:32:36.162Z,94.42
2022-11-05T02:35:19.080Z,94.45
2022-11-05T02:38:06.599Z,95.35
2022-11-05T02:40:49.522Z,95.64
2022-11-05T02:43:28.305Z,95.18
2022-11-05T02:46:01.184Z,95.68
2022-11-05T02:48:34.065Z,95.70
2022-11-05T02:51:18.785Z,96.15
2022-11-05T02:54:01.825Z,96.95
2022-11-05T02:56:35.603Z,96.73
2022-11-05T02:59:02.436Z,96.66
2022-11-05T03:01:29.384Z,95.47
2022-11-05T03:04:00.887Z,95.09
2022-11-05T03:06:41.255Z,93.91
2022-11-05T03:09:32.128Z,94.35
2022-11-05T03:12:10.120Z,95.18
2022-11-05T03:14:49.101Z,94.84
2022-11-05T03:17:34.043Z,96.38
2022-11-05T03:20:10.662Z,93.73
2022-11-05T03:22:47.645Z,95.82
2022-11-05T03:25:21.909Z,96.31
2022-11-05T03:27:54.457Z,96.18
2022-11-05T03:30:21.576Z,96.75
2022-11-05T03:32:54.871Z,96.97
2022-11-05T03:35:27.890Z,97.55
2022-11-05T03:38:03.405Z,97.83
2022-11-05T03:40:35.159Z,98.45
2022-11-05T03:43:06.707Z,98.22
2022-11-05T03:45:38.402Z,98.60
2022-11-05T03:48:08.277Z,98.54
2022-11-05T03:50:54.180Z,97.70
2022-11-05T03:53:30.199Z,97.63
2022-11-05T03:56:03.348Z,97.82
2022-11-05T03:58:31.861Z,98.54
2022-11-05T04:01:02.777Z,97.97
2022-11-05T04:03:36.398Z,98.05
2022-11-05T04:06:24.087Z,98.12
2022-11-05T04:09:09.740Z,97.64
2022-11-05T04:11:55.651Z,97.08
2022-11-05T04:14:22.549Z,96.40
2022-11-05T04:17:08.764Z,96.28
2022-11-05T04:19:58.174Z,97.70
2022-11-05T04:22:45.370Z,96.44
2022-11-05T04:25:13.322Z,96.07
2022-11-05T04:27:40.137Z,96.20
2022-11-05T04:30:20.040Z,96.72
2022-11-05T04:32:56.756Z,96.83
2022-11-05T04:35:23.848Z,97.36
2022-11-05T04:37:50.715Z,97.00
2022-11-05T04:40:17.553Z,97.38
2022-11-05T04:42:44.354Z,97.71
2022-11-05T04:45:11.134Z,97.90
2022-11-05T04:47:37.959Z,97.29
2022-11-05T04:50:05.560Z,96.79
2022-11-05T04:52:32.432Z,97.36
2022-11-05T04:54:59.263Z,97.55
2022-11-05T04:57:26.056Z,97.68
2022-11-05T04:59:55.145Z,97.06
2022-11-05T05:02:21.993Z,97.02
2022-11-05T05:04:48.843Z,97.24
2022-11-05T05:07:15.670Z,97.64
2022-11-05T05:09:42.493Z,96.66
2022-11-05T05:12:09.262Z,96.69
2022-11-05T05:14:36.172Z,96.71
2022-11-05T05:17:03.036Z,96.71
2022-11-05T05:19:29.904Z,97.21
2022-11-05T05:21:56.731Z,96.81
2022-11-05T05:24:25.134Z,97.20
2022-11-05T05:26:52.155Z,98.36
2022-11-05T05:29:19.379Z,97.38
2022-11-05T05:31:46.179Z,96.59
2022-11-05T05:34:14.420Z,96.30
2022-11-05T05:36:41.214Z,96.19
2022-11-05T05:39:08.892Z,96.53
2022-11-05T05:41:35.687Z,95.22
2022-11-05T05:44:04.374Z,95.04
2022-11-05T05:46:31.149Z,100.00
2022-11-05T05:48:58.297Z,100.00
2022-11-05T05:51:25.075Z,93.11
2022-11-05T05:53:53.936Z,93.44
2022-11-05T05:56:21.145Z,91.63
2022-11-05T05:58:48.256Z,92.03
2022-11-05T06:01:19.193Z,91.60
2022-11-05T06:03:47.309Z,90.97
2022-11-05T06:06:15.342Z,91.37
2022-11-05T06:08:42.606Z,92.65
2022-11-05T06:11:09.800Z,91.10
2022-11-05T06:13:37.528Z,92.48
2022-11-05T06:16:07.081Z,91.40
2022-11-05T06:18:34.809Z,91.66
2022-11-05T06:21:13.010Z,91.89
2022-11-05T06:23:41.718Z,92.77
2022-11-05T06:26:11.317Z,92.31
2022-11-05T06:28:38.346Z,93.58
2022-11-05T06:31:05.952Z,90.12
2022-11-05T06:33:32.820Z,89.70
2022-11-05T06:36:01.279Z,88.74
2022-11-05T06:38:29.466Z,88.26
2022-11-05T06:40:59.360Z,88.92
2022-11-05T06:43:27.385Z,87.72
2022-11-05T06:45:54.974Z,87.07
2022-11-05T06:48:22.012Z,87.00
2022-11-05T06:50:48.865Z,86.83
2022-11-05T06:53:15.696Z,85.67
2022-11-05T06:55:44.870Z,85.41
2022-11-05T06:58:11.716Z,85.25
2022-11-05T07:00:38.644Z,84.43
2022-11-05T07:03:11.158Z,84.19
2022-11-05T07:05:45.361Z,83.22
2022-11-05T07:08:12.329Z,82.29
2022-11-05T07:10:39.191Z,81.62
2022-11-05T07:13:08.373Z,81.08
2022-11-05T07:15:35.969Z,80.82
2022-11-05T07:18:02.940Z,80.54
2022-11-05T07:20:33.937Z,79.40
2022-11-05T07:23:02.721Z,78.97
2022-11-05T07:25:31.507Z,78.50
2022-11-05T07:27:58.607Z,77.64
2022-11-05T07:30:25.476Z,77.01
2022-11-05T07:32:52.447Z,76.35
2022-11-05T07:35:19.327Z,74.52
2022-11-05T07:37:48.005Z,73.70
2022-11-05T07:40:16.646Z,72.35
2022-11-05T07:42:45.233Z,72.09
2022-11-05T07:45:13.717Z,70.39
2022-11-05T07:47:49.646Z,69.35
2022-11-05T07:50:18.376Z,68.63
2022-11-05T07:52:45.762Z,67.53
2022-11-05T07:55:13.447Z,69.43
2022-11-05T07:57:44.968Z,66.85
2022-11-05T08:00:22.962Z,66.68
2022-11-05T08:03:06.860Z,64.24
2022-11-05T08:05:38.994Z,63.80
2022-11-05T08:08:07.716Z,62.67
2022-11-05T08:10:35.452Z,62.58
2022-11-05T08:13:02.512Z,62.96
2022-11-05T08:15:29.454Z,62.29
2022-11-05T08:18:00.994Z,61.78
2022-11-05T08:20:28.522Z,60.74
2022-11-05T08:22:56.155Z,61.03
2022-11-05T08:25:23.890Z,61.04
2022-11-05T08:27:58.768Z,60.32
2022-11-05T08:30:32.624Z,59.24
2022-11-05T08:33:02.392Z,59.33
2022-11-05T08:35:29.883Z,59.31
2022-11-05T08:38:02.876Z,58.75
2022-11-05T08:40:36.155Z,58.62
2022-11-05T08:43:04.971Z,57.59
2022-11-05T08:45:32.071Z,56.59
2022-11-05T08:48:04.366Z,55.08
2022-11-05T08:50:32.130Z,55.67
2022-11-05T08:52:59.187Z,56.00
2022-11-05T08:55:26.737Z,55.57
2022-11-05T08:58:01.501Z,55.60
2022-11-05T09:00:30.929Z,56.17
2022-11-05T09:03:02.401Z,56.69
2022-11-05T09:05:30.825Z,56.27
2022-11-05T09:08:01.298Z,55.81
2022-11-05T09:10:28.766Z,56.55
2022-11-05T09:12:55.850Z,56.53
2022-11-05T09:15:23.567Z,56.29
2022-11-05T09:17:50.923Z,55.42
2022-11-05T09:20:18.097Z,55.01
2022-11-05T09:22:46.401Z,55.42
2022-11-05T09:25:13.276Z,54.39
2022-11-05T09:27:40.055Z,55.05
2022-11-05T09:30:07.441Z,55.32
2022-11-05T09:32:34.397Z,54.24
2022-11-05T09:35:01.435Z,54.53
2022-11-05T09:37:29.306Z,54.32
2022-11-05T09:39:56.075Z,54.14
2022-11-05T09:42:29.431Z,54.11
2022-11-05T09:45:04.014Z,53.42
2022-11-05T09:47:40.350Z,52.98
2022-11-05T09:50:13.419Z,52.38
2022-11-05T09:52:40.228Z,51.43
2022-11-05T09:55:43.111Z,50.33
2022-11-05T09:58:17.971Z,50.12
2022-11-05T10:00:48.849Z,49.40
2022-11-05T10:03:29.013Z,49.35
2022-11-05T10:06:07.229Z,49.00
2022-11-05T10:08:44.298Z,49.67
2022-11-05T10:11:18.536Z,48.18
2022-11-05T10:13:59.635Z,47.19
2022-11-05T10:16:36.456Z,47.34
2022-11-05T10:19:13.223Z,46.70
2022-11-05T10:24:28.150Z,46.46
2022-11-05T10:26:56.428Z,46.35
2022-11-05T10:29:30.217Z,46.20
2022-11-05T10:32:00.024Z,46.46
2022-11-05T10:34:32.734Z,46.12
2022-11-05T10:36:59.730Z,45.97
2022-11-05T10:39:27.953Z,46.31
2022-11-05T10:42:10.914Z,45.60
2022-11-05T10:45:02.230Z,45.44
2022-11-05T10:47:53.850Z,45.10
2022-11-05T10:50:25.166Z,44.68
2022-11-05T10:52:58.331Z,43.78
2022-11-05T10:55:29.834Z,43.97
2022-11-05T10:58:13.361Z,43.67
2022-11-05T11:00:40.651Z,43.84
2022-11-05T11:03:36.313Z,43.42
2022-11-05T11:06:16.792Z,43.57
2022-11-05T11:08:46.256Z,43.10
2022-11-05T11:11:26.172Z,43.25
2022-11-05T11:13:58.973Z,42.99
2022-11-05T11:16:32.119Z,43.12
2022-11-05T11:19:01.333Z,43.26
2022-11-05T11:21:30.212Z,42.81
2022-11-05T11:23:58.681Z,42.01
2022-11-05T11:26:35.555Z,42.74
2022-11-05T11:29:07.152Z,42.59
2022-11-05T11:31:38.317Z,42.40
2022-11-05T11:34:28.360Z,42.57
2022-11-05T11:37:05.509Z,42.81
2022-11-05T11:39:33.404Z,42.38
2022-11-05T11:42:05.703Z,43.05
2022-11-05T11:44:42.002Z,42.91
2022-11-05T11:47:12.319Z,42.67
2022-11-05T11:49:42.025Z,42.80
2022-11-05T11:52:15.227Z,42.06
2022-11-05T11:54:42.966Z,42.55
2022-11-05T11:57:25.192Z,42.39
2022-11-05T12:00:08.341Z,42.09
2022-11-05T12:02:42.323Z,42.10
2022-11-05T12:05:33.075Z,41.99
2022-11-05T12:08:08.641Z,42.00
2022-11-05T12:10:57.857Z,42.05
2022-11-05T12:13:24.618Z,43.07
2022-11-05T12:15:58.066Z,41.24
2022-11-05T12:18:36.851Z,42.17
2022-11-05T12:21:12.477Z,41.28
2022-11-05T12:23:57.534Z,41.61
2022-11-05T12:26:42.665Z,42.10
2022-11-05T12:29:38.322Z,42.22
2022-11-05T12:32:46.549Z,42.30
2022-11-05T12:36:12.321Z,42.30
2022-11-05T12:39:06.853Z,42.16
2022-11-05T12:41:37.144Z,42.14
2022-11-05T12:44:28.100Z,42.74
2022-11-05T12:47:03.731Z,42.55
2022-11-05T12:50:00.405Z,42.68
2022-11-05T12:52:45.342Z,42.81
2022-11-05T12:55:16.973Z,42.20
2022-11-05T12:57:48.250Z,42.21
2022-11-05T13:00:20.542Z,42.68
2022-11-05T13:03:08.824Z,42.70
2022-11-05T13:05:38.762Z,42.91
2022-11-05T13:08:10.648Z,43.11
2022-11-05T13:10:55.295Z,42.89
2022-11-05T13:13:38.642Z,43.49
2022-11-05T13:16:13.736Z,43.82
2022-11-05T13:19:06.991Z,44.20
2022-11-05T13:21:36.170Z,43.43
2022-11-05T13:24:18.898Z,43.33
2022-11-05T13:26:56.364Z,43.57
2022-11-05T13:29:32.917Z,44.06
2022-11-05T13:32:19.906Z,44.04
2022-11-05T13:34:47.777Z,43.38
2022-11-05T13:37:39.495Z,44.35
2022-11-05T13:40:09.812Z,43.53
2022-11-05T13:43:14.793Z,44.07
2022-11-05T13:45:52.261Z,43.99
2022-11-05T13:48:31.330Z,44.25
2022-11-05T13:51:16.717Z,44.18
2022-11-05T13:54:01.892Z,45.29
2022-11-05T13:56:47.299Z,45.13
2022-11-05T13:59:38.890Z,44.85
2022-11-05T14:02:17.566Z,45.00
2022-11-05T14:05:01.292Z,44.98
2022-11-05T14:07:35.310Z,45.69
2022-11-05T14:10:25.175Z,45.29
2022-11-05T14:12:55.019Z,45.13
2022-11-05T14:15:25.816Z,45.67
2022-11-05T14:18:27.887Z,45.83
2022-11-05T14:21:01.149Z,45.68
2022-11-05T14:23:36.636Z,45.93
2022-11-05T14:26:14.125Z,46.01
2022-11-05T14:28:47.432Z,45.96
2022-11-05T14:31:20.098Z,46.05
2022-11-05T14:34:01.447Z,46.24
2022-11-05T14:36:44.684Z,46.07
2022-11-05T14:39:29.190Z,46.27
2022-11-05T14:42:04.694Z,46.19
2022-11-05T14:44:34.971Z,46.67
2022-11-05T14:47:08.040Z,46.86
2022-11-05T14:50:01.574Z,47.17
2022-11-05T14:52:29.068Z,47.35
2022-11-05T14:54:58.667Z,47.95
2022-11-05T14:57:40.778Z,48.23
2022-11-05T15:00:36.735Z,47.99
2022-11-05T15:03:31.414Z,48.34
2022-11-05T15:06:19.294Z,48.34
2022-11-05T15:08:48.915Z,48.80
2022-11-05T15:11:28.391Z,49.13
2022-11-05T15:13:55.189Z,49.51
2022-11-05T15:17:01.147Z,49.16
2022-11-05T15:19:32.831Z,49.55
2022-11-05T15:22:04.517Z,49.70
2022-11-05T15:24:32.159Z,50.47
2022-11-05T15:26:58.915Z,51.11
2022-11-05T15:29:29.009Z,51.82
2022-11-05T15:31:56.950Z,52.86
2022-11-05T15:34:33.217Z,53.50
2022-11-05T15:37:03.494Z,54.04
2022-11-05T15:39:40.840Z,54.75
2022-11-05T15:42:22.436Z,55.22
2022-11-05T15:44:51.955Z,55.46
2022-11-05T15:47:24.554Z,56.24
2022-11-05T15:49:55.984Z,57.07
2022-11-05T15:52:26.079Z,57.84
2022-11-05T15:55:15.028Z,58.44
2022-11-05T15:57:59.036Z,58.48
2022-11-05T16:00:28.558Z,58.75
2022-11-05T16:03:06.566Z,58.88
2022-11-05T16:05:41.798Z,59.12
2022-11-05T16:08:19.072Z,59.29
2022-11-05T16:10:49.344Z,60.25
2022-11-05T16:13:28.074Z,59.97
2022-11-05T16:15:57.081Z,59.41
2022-11-05T16:18:30.188Z,59.79
2022-11-05T16:21:02.902Z,60.00
2022-11-05T16:24:00.677Z,60.57
2022-11-05T16:27:00.688Z,60.40
2022-11-05T16:29:25.773Z,60.83
2022-11-05T16:31:55.353Z,61.21
2022-11-05T16:34:27.080Z,61.19
2022-11-05T16:36:59.197Z,61.78
2022-11-05T16:39:26.695Z,61.79
2022-11-05T16:41:53.651Z,62.11
2022-11-05T16:44:20.485Z,61.96
2022-11-05T16:46:49.464Z,62.57
2022-11-05T16:49:17.492Z,62.54
2022-11-05T16:51:44.823Z,62.62
2022-11-05T16:54:11.660Z,62.48
2022-11-05T16:56:40.082Z,62.96
2022-11-05T16:59:11.282Z,63.86
2022-11-05T17:01:41.034Z,63.92
2022-11-05T17:04:09.571Z,63.71
2022-11-05T17:06:36.410Z,63.45
2022-11-05T17:09:03.250Z,63.52
2022-11-05T17:11:30.027Z,63.58
2022-11-05T17:13:56.908Z,63.17
2022-11-05T17:16:23.890Z,63.19
2022-11-05T17:18:51.171Z,63.35
2022-11-05T17:21:17.950Z,63.44
2022-11-05T17:23:44.754Z,63.60
2022-11-05T17:26:13.837Z,63.91
2022-11-05T17:28:41.231Z,63.47
2022-11-05T17:31:11.699Z,63.47
2022-11-05T17:33:38.702Z,63.61
2022-11-05T17:36:11.204Z,63.98
2022-11-05T17:38:38.634Z,63.49
2022-11-05T17:41:17.394Z,63.44
2022-11-05T17:43:44.538Z,63.61
2022-11-05T17:46:15.176Z,63.95
2022-11-05T17:48:42.565Z,64.74
2022-11-05T17:51:11.306Z,64.62
2022-11-05T17:53:38.371Z,64.76
2022-11-05T17:56:32.514Z,65.70
2022-11-05T17:59:03.145Z,65.52
2022-11-05T18:01:32.829Z,66.04
2022-11-05T18:04:05.408Z,66.31
2022-11-05T18:06:39.627Z,66.49
2022-11-05T18:09:08.261Z,66.78
2022-11-05T18:11:36.325Z,66.20
2022-11-05T18:14:04.022Z,66.91
2022-11-05T18:16:30.973Z,67.29
2022-11-05T18:18:57.854Z,67.11
2022-11-05T18:21:24.671Z,67.55
2022-11-05T18:23:53.643Z,67.50
2022-11-05T18:26:20.640Z,66.69
2022-11-05T18:28:47.458Z,66.88
2022-11-05T18:31:20.743Z,67.18
2022-11-05T18:33:51.441Z,67.08
2022-11-05T18:36:19.449Z,67.67
2022-11-05T18:38:46.875Z,68.07
2022-11-05T18:41:14.204Z,67.71
2022-11-05T18:43:41.251Z,68.21
2022-11-05T18:46:08.919Z,68.60
2022-11-05T18:48:36.527Z,68.99
2022-11-05T18:51:14.093Z,69.18
2022-11-05T18:53:41.864Z,70.03
2022-11-05T18:56:14.838Z,70.15
2022-11-05T18:58:42.804Z,70.12
2022-11-05T19:01:18.722Z,70.65
2022-11-05T19:03:46.660Z,70.93
2022-11-05T19:06:15.077Z,71.38
2022-11-05T19:08:42.072Z,71.56
2022-11-05T19:11:11.913Z,71.27
2022-11-05T19:13:39.348Z,71.49
2022-11-05T19:16:09.012Z,71.99
2022-11-05T19:18:36.244Z,71.93
2022-11-05T19:21:11.653Z,70.95
2022-11-05T19:23:39.533Z,71.40
2022-11-05T19:26:12.715Z,70.64
2022-11-05T19:28:40.492Z,69.81
2022-11-05T19:31:08.539Z,69.56
2022-11-05T19:33:35.751Z,68.90
2022-11-05T19:36:06.542Z,67.72
2022-11-05T19:38:33.684Z,67.16
2022-11-05T19:41:08.225Z,67.08
2022-11-05T19:43:36.221Z,67.15
2022-11-05T19:46:11.158Z,66.63
2022-11-05T19:48:38.380Z,66.40
2022-11-05T19:51:09.764Z,65.72
2022-11-05T19:53:41.032Z,65.15
2022-11-05T19:56:10.795Z,65.61
2022-11-05T19:58:37.574Z,66.32
2022-11-05T20:01:05.073Z,67.34
2022-11-05T20:03:32.056Z,68.00
2022-11-05T20:06:04.315Z,68.56
2022-11-05T20:08:31.125Z,68.87
2022-11-05T20:10:58.068Z,69.15
2022-11-05T20:13:25.221Z,69.47
2022-11-05T20:15:52.151Z,69.76
2022-11-05T20:18:19.354Z,69.31
2022-11-05T20:20:46.846Z,69.31
2022-11-05T20:23:14.419Z,69.76
2022-11-05T20:25:42.548Z,69.56
2022-11-05T20:28:10.080Z,70.22
2022-11-05T20:30:39.962Z,70.82
2022-11-05T20:33:09.312Z,71.35
2022-11-05T20:35:39.595Z,71.67
2022-11-05T20:38:06.517Z,71.50
2022-11-05T20:40:33.377Z,71.12
2022-11-05T20:43:00.173Z,71.62
2022-11-05T20:45:27.021Z,70.93
2022-11-05T20:47:53.873Z,71.09
2022-11-05T20:50:20.732Z,71.54
2022-11-05T20:52:47.581Z,72.02
2022-11-05T20:55:15.740Z,72.58
2022-11-05T20:57:42.687Z,72.61
2022-11-05T21:00:10.021Z,72.00
2022-11-05T21:02:38.680Z,72.53
2022-11-05T21:05:08.109Z,72.74
2022-11-05T21:07:34.891Z,73.19
2022-11-05T21:10:02.351Z,73.27
2022-11-05T21:12:29.256Z,74.16
2022-11-05T21:14:56.193Z,75.18
2022-11-05T21:17:23.028Z,74.41
2022-11-05T21:19:49.979Z,74.36
2022-11-05T21:22:17.200Z,74.28
2022-11-05T21:24:44.322Z,74.61
2022-11-05T21:27:11.282Z,74.44
2022-11-05T21:29:38.060Z,74.87
2022-11-05T21:32:04.918Z,75.31
2022-11-05T21:34:31.895Z,75.64
2022-11-05T21:36:59.027Z,75.56
2022-11-05T21:39:26.162Z,75.99
2022-11-05T21:41:52.961Z,76.15
2022-11-05T21:44:19.844Z,76.38
2022-11-05T21:46:46.748Z,75.62
2022-11-05T21:49:14.693Z,75.76
2022-11-05T21:52:00.053Z,75.83
2022-11-05T21:54:45.683Z,76.16
2022-11-05T21:57:35.916Z,75.92
2022-11-05T22:00:06.214Z,76.22
2022-11-05T22:02:33.227Z,76.27
2022-11-05T22:05:00.384Z,76.24
2022-11-05T22:07:31.762Z,76.15
2022-11-05T22:09:59.103Z,76.30
2022-11-05T22:12:26.567Z,75.54
2022-11-05T22:14:53.648Z,76.27
2022-11-05T22:17:21.430Z,76.11
2022-11-05T22:19:48.253Z,76.23
2022-11-05T22:22:17.537Z,76.19
2022-11-05T22:24:44.595Z,75.82
2022-11-05T22:27:15.277Z,75.12
2022-11-05T22:29:43.295Z,75.21
2022-11-05T22:32:11.360Z,75.38
2022-11-05T22:34:38.243Z,75.66
2022-11-05T22:37:05.224Z,75.88
2022-11-05T22:39:32.209Z,76.11
2022-11-05T22:42:04.220Z,76.50
2022-11-05T22:44:35.213Z,75.95
2022-11-05T22:47:05.409Z,76.41
2022-11-05T22:49:32.970Z,76.56
2022-11-05T22:52:00.328Z,76.00
2022-11-05T22:54:27.199Z,76.71
2022-11-05T22:56:54.017Z,76.72
2022-11-05T22:59:20.913Z,76.67
2022-11-05T23:01:47.953Z,76.89
2022-11-05T23:04:15.696Z,76.77
2022-11-05T23:07:01.225Z,76.32
2022-11-05T23:09:52.264Z,75.91
2022-11-05T23:12:28.508Z,76.02
2022-11-05T23:14:58.517Z,75.96
2022-11-05T23:17:44.763Z,76.15
2022-11-05T23:20:37.058Z,76.42
2022-11-05T23:23:23.022Z,76.72
2022-11-05T23:25:49.835Z,76.97
2022-11-05T23:28:21.331Z,77.11
2022-11-05T23:31:06.790Z,77.12
2022-11-05T23:33:34.847Z,77.09
2022-11-05T23:36:20.461Z,77.68
2022-11-05T23:38:47.321Z,76.63
2022-11-05T23:41:32.856Z,76.77
2022-11-05T23:44:18.523Z,77.43
2022-11-05T23:47:04.230Z,78.15
2022-11-05T23:49:31.119Z,78.36
2022-11-05T23:51:57.992Z,78.92
2022-11-05T23:54:24.813Z,78.30
2022-11-05T23:56:52.649Z,76.94
2022-11-05T23:59:19.490Z,77.29
